sensor_id;sensor_type;location;lat;lon;timestamp;P1;durP1;ratioP1;P2;durP2;ratioP2
75059;SDS011;63640;59.264;18.116;2023-09-19T00:00:20;13.73;;;5.50;;
75059;SDS011;63640;59.264;18.116;2023-09-19T00:02:51;12.35;;;5.10;;
75059;SDS011;63640;59.264;18.116;2023-09-19T00:05:20;10.52;;;5.68;;
75059;SDS011;63640;59.264;18.116;2023-09-19T00:07:49;12.32;;;4.82;;
75059;SDS011;63640;59.264;18.116;2023-09-19T00:10:20;10.75;;;5.43;;
75059;SDS011;63640;59.264;18.116;2023-09-19T00:12:47;10.23;;;5.22;;
75059;SDS011;63640;59.264;18.116;2023-09-19T00:15:12;17.33;;;6.32;;
75059;SDS011;63640;59.264;18.116;2023-09-19T00:17:38;14.85;;;6.40;;
75059;SDS011;63640;59.264;18.116;2023-09-19T00:20:05;11.25;;;5.50;;
75059;SDS011;63640;59.264;18.116;2023-09-19T00:22:41;9.82;;;5.95;;
75059;SDS011;63640;59.264;18.116;2023-09-19T00:25:08;17.02;;;6.35;;
75059;SDS011;63640;59.264;18.116;2023-09-19T00:27:35;12.68;;;6.18;;
75059;SDS011;63640;59.264;18.116;2023-09-19T00:30:01;11.95;;;5.80;;
75059;SDS011;63640;59.264;18.116;2023-09-19T00:32:27;11.10;;;6.05;;
75059;SDS011;63640;59.264;18.116;2023-09-19T00:34:57;12.43;;;6.70;;
75059;SDS011;63640;59.264;18.116;2023-09-19T00:37:22;14.18;;;6.85;;
75059;SDS011;63640;59.264;18.116;2023-09-19T00:39:48;11.45;;;6.68;;
75059;SDS011;63640;59.264;18.116;2023-09-19T00:42:20;11.57;;;6.25;;
75059;SDS011;63640;59.264;18.116;2023-09-19T00:44:46;12.82;;;6.63;;
75059;SDS011;63640;59.264;18.116;2023-09-19T00:47:11;12.25;;;6.28;;
75059;SDS011;63640;59.264;18.116;2023-09-19T00:49:42;15.15;;;7.15;;
75059;SDS011;63640;59.264;18.116;2023-09-19T00:52:08;12.20;;;5.65;;
75059;SDS011;63640;59.264;18.116;2023-09-19T00:54:35;11.75;;;6.53;;
75059;SDS011;63640;59.264;18.116;2023-09-19T00:57:01;11.30;;;6.35;;
75059;SDS011;63640;59.264;18.116;2023-09-19T00:59:27;13.02;;;7.10;;
75059;SDS011;63640;59.264;18.116;2023-09-19T01:01:53;16.00;;;7.20;;
75059;SDS011;63640;59.264;18.116;2023-09-19T01:04:20;15.50;;;5.95;;
75059;SDS011;63640;59.264;18.116;2023-09-19T01:06:45;12.82;;;6.43;;
75059;SDS011;63640;59.264;18.116;2023-09-19T01:09:11;14.05;;;6.70;;
75059;SDS011;63640;59.264;18.116;2023-09-19T01:11:46;19.63;;;7.35;;
75059;SDS011;63640;59.264;18.116;2023-09-19T01:14:31;12.90;;;6.75;;
75059;SDS011;63640;59.264;18.116;2023-09-19T01:20:09;12.60;;;6.45;;
75059;SDS011;63640;59.264;18.116;2023-09-19T01:25:40;12.98;;;6.85;;
75059;SDS011;63640;59.264;18.116;2023-09-19T01:28:20;11.88;;;6.50;;
75059;SDS011;63640;59.264;18.116;2023-09-19T01:30:58;13.23;;;6.57;;
75059;SDS011;63640;59.264;18.116;2023-09-19T01:33:25;14.48;;;7.03;;
75059;SDS011;63640;59.264;18.116;2023-09-19T01:35:51;12.70;;;6.88;;
75059;SDS011;63640;59.264;18.116;2023-09-19T01:38:18;14.85;;;7.57;;
75059;SDS011;63640;59.264;18.116;2023-09-19T01:40:47;14.93;;;6.85;;
75059;SDS011;63640;59.264;18.116;2023-09-19T01:43:33;12.57;;;7.50;;
75059;SDS011;63640;59.264;18.116;2023-09-19T01:46:09;11.48;;;6.95;;
75059;SDS011;63640;59.264;18.116;2023-09-19T01:52:11;18.42;;;8.52;;
75059;SDS011;63640;59.264;18.116;2023-09-19T01:54:56;16.90;;;7.07;;
75059;SDS011;63640;59.264;18.116;2023-09-19T01:57:36;14.60;;;7.75;;
75059;SDS011;63640;59.264;18.116;2023-09-19T02:00:07;15.18;;;7.55;;
75059;SDS011;63640;59.264;18.116;2023-09-19T02:02:37;15.68;;;8.32;;
75059;SDS011;63640;59.264;18.116;2023-09-19T02:05:03;14.25;;;8.07;;
75059;SDS011;63640;59.264;18.116;2023-09-19T02:07:30;12.82;;;7.43;;
75059;SDS011;63640;59.264;18.116;2023-09-19T02:09:57;16.45;;;8.55;;
75059;SDS011;63640;59.264;18.116;2023-09-19T02:12:25;15.32;;;7.80;;
75059;SDS011;63640;59.264;18.116;2023-09-19T02:14:51;14.68;;;8.02;;
75059;SDS011;63640;59.264;18.116;2023-09-19T02:17:16;13.45;;;8.15;;
75059;SDS011;63640;59.264;18.116;2023-09-19T02:19:42;17.45;;;8.70;;
75059;SDS011;63640;59.264;18.116;2023-09-19T02:22:08;16.13;;;8.65;;
75059;SDS011;63640;59.264;18.116;2023-09-19T02:24:35;12.18;;;8.20;;
75059;SDS011;63640;59.264;18.116;2023-09-19T02:27:04;14.73;;;8.93;;
75059;SDS011;63640;59.264;18.116;2023-09-19T02:29:30;16.42;;;9.15;;
75059;SDS011;63640;59.264;18.116;2023-09-19T02:31:55;17.13;;;9.73;;
75059;SDS011;63640;59.264;18.116;2023-09-19T02:34:21;15.07;;;8.45;;
75059;SDS011;63640;59.264;18.116;2023-09-19T02:36:48;19.70;;;10.40;;
75059;SDS011;63640;59.264;18.116;2023-09-19T02:39:13;15.50;;;9.10;;
75059;SDS011;63640;59.264;18.116;2023-09-19T02:41:38;18.30;;;9.82;;
75059;SDS011;63640;59.264;18.116;2023-09-19T02:44:05;17.00;;;9.52;;
75059;SDS011;63640;59.264;18.116;2023-09-19T02:46:33;20.13;;;10.68;;
75059;SDS011;63640;59.264;18.116;2023-09-19T02:48:59;17.77;;;9.38;;
75059;SDS011;63640;59.264;18.116;2023-09-19T02:51:24;17.35;;;9.98;;
75059;SDS011;63640;59.264;18.116;2023-09-19T02:53:50;20.35;;;11.18;;
75059;SDS011;63640;59.264;18.116;2023-09-19T02:56:17;20.60;;;10.48;;
75059;SDS011;63640;59.264;18.116;2023-09-19T02:58:43;17.42;;;9.82;;
75059;SDS011;63640;59.264;18.116;2023-09-19T03:01:09;18.70;;;10.63;;
75059;SDS011;63640;59.264;18.116;2023-09-19T03:03:38;19.55;;;11.40;;
75059;SDS011;63640;59.264;18.116;2023-09-19T03:06:07;19.45;;;11.25;;
75059;SDS011;63640;59.264;18.116;2023-09-19T03:08:34;19.08;;;11.65;;
75059;SDS011;63640;59.264;18.116;2023-09-19T03:11:05;20.90;;;11.73;;
75059;SDS011;63640;59.264;18.116;2023-09-19T03:13:32;16.88;;;10.52;;
75059;SDS011;63640;59.264;18.116;2023-09-19T03:15:57;16.60;;;10.50;;
75059;SDS011;63640;59.264;18.116;2023-09-19T03:18:26;17.35;;;10.93;;
75059;SDS011;63640;59.264;18.116;2023-09-19T03:20:55;20.08;;;11.65;;
75059;SDS011;63640;59.264;18.116;2023-09-19T03:23:21;23.08;;;12.60;;
75059;SDS011;63640;59.264;18.116;2023-09-19T03:25:46;18.58;;;10.85;;
75059;SDS011;63640;59.264;18.116;2023-09-19T03:28:13;20.75;;;12.23;;
75059;SDS011;63640;59.264;18.116;2023-09-19T03:30:39;21.15;;;11.50;;
75059;SDS011;63640;59.264;18.116;2023-09-19T03:33:05;20.02;;;12.32;;
75059;SDS011;63640;59.264;18.116;2023-09-19T03:35:31;21.50;;;12.82;;
75059;SDS011;63640;59.264;18.116;2023-09-19T03:37:56;24.60;;;13.57;;
75059;SDS011;63640;59.264;18.116;2023-09-19T03:40:22;19.55;;;11.73;;
75059;SDS011;63640;59.264;18.116;2023-09-19T03:42:48;21.23;;;12.35;;
75059;SDS011;63640;59.264;18.116;2023-09-19T03:45:14;23.05;;;13.70;;
75059;SDS011;63640;59.264;18.116;2023-09-19T03:47:41;22.60;;;14.02;;
75059;SDS011;63640;59.264;18.116;2023-09-19T03:50:07;20.63;;;13.00;;
75059;SDS011;63640;59.264;18.116;2023-09-19T03:52:45;22.58;;;13.57;;
75059;SDS011;63640;59.264;18.116;2023-09-19T03:55:10;23.70;;;14.73;;
75059;SDS011;63640;59.264;18.116;2023-09-19T03:57:36;24.95;;;13.95;;
75059;SDS011;63640;59.264;18.116;2023-09-19T04:00:02;22.80;;;14.80;;
75059;SDS011;63640;59.264;18.116;2023-09-19T04:02:30;26.63;;;14.02;;
75059;SDS011;63640;59.264;18.116;2023-09-19T04:04:58;21.15;;;13.30;;
75059;SDS011;63640;59.264;18.116;2023-09-19T04:07:24;24.58;;;14.68;;
75059;SDS011;63640;59.264;18.116;2023-09-19T04:09:51;24.83;;;13.98;;
75059;SDS011;63640;59.264;18.116;2023-09-19T04:12:18;22.42;;;14.45;;
75059;SDS011;63640;59.264;18.116;2023-09-19T04:14:44;22.95;;;13.48;;
75059;SDS011;63640;59.264;18.116;2023-09-19T04:17:10;22.77;;;13.93;;
75059;SDS011;63640;59.264;18.116;2023-09-19T04:19:36;23.20;;;13.35;;
75059;SDS011;63640;59.264;18.116;2023-09-19T04:22:01;23.70;;;13.30;;
75059;SDS011;63640;59.264;18.116;2023-09-19T04:24:28;23.33;;;14.65;;
75059;SDS011;63640;59.264;18.116;2023-09-19T04:26:54;25.33;;;15.82;;
75059;SDS011;63640;59.264;18.116;2023-09-19T04:29:19;22.42;;;14.15;;
75059;SDS011;63640;59.264;18.116;2023-09-19T04:31:45;25.02;;;14.88;;
75059;SDS011;63640;59.264;18.116;2023-09-19T04:34:11;28.25;;;15.63;;
75059;SDS011;63640;59.264;18.116;2023-09-19T04:36:42;24.42;;;14.10;;
75059;SDS011;63640;59.264;18.116;2023-09-19T04:39:08;31.15;;;15.00;;
75059;SDS011;63640;59.264;18.116;2023-09-19T04:41:35;21.65;;;13.90;;
75059;SDS011;63640;59.264;18.116;2023-09-19T04:44:05;24.10;;;15.25;;
75059;SDS011;63640;59.264;18.116;2023-09-19T04:46:30;25.08;;;14.15;;
75059;SDS011;63640;59.264;18.116;2023-09-19T04:48:56;21.73;;;13.75;;
75059;SDS011;63640;59.264;18.116;2023-09-19T04:51:22;26.80;;;14.52;;
75059;SDS011;63640;59.264;18.116;2023-09-19T04:53:48;22.90;;;14.15;;
75059;SDS011;63640;59.264;18.116;2023-09-19T04:56:14;23.23;;;15.10;;
75059;SDS011;63640;59.264;18.116;2023-09-19T04:58:40;26.13;;;16.20;;
75059;SDS011;63640;59.264;18.116;2023-09-19T05:01:05;25.33;;;14.77;;
75059;SDS011;63640;59.264;18.116;2023-09-19T05:03:34;21.70;;;14.30;;
75059;SDS011;63640;59.264;18.116;2023-09-19T05:05:59;27.73;;;16.38;;
75059;SDS011;63640;59.264;18.116;2023-09-19T05:08:25;25.77;;;15.05;;
75059;SDS011;63640;59.264;18.116;2023-09-19T05:10:50;23.27;;;15.48;;
75059;SDS011;63640;59.264;18.116;2023-09-19T05:13:16;22.42;;;14.55;;
75059;SDS011;63640;59.264;18.116;2023-09-19T05:15:41;25.92;;;15.45;;
75059;SDS011;63640;59.264;18.116;2023-09-19T05:18:07;28.92;;;16.50;;
75059;SDS011;63640;59.264;18.116;2023-09-19T05:20:32;24.00;;;17.15;;
75059;SDS011;63640;59.264;18.116;2023-09-19T05:23:05;29.75;;;15.90;;
75059;SDS011;63640;59.264;18.116;2023-09-19T05:25:34;23.30;;;16.77;;
75059;SDS011;63640;59.264;18.116;2023-09-19T05:28:07;25.23;;;16.17;;
75059;SDS011;63640;59.264;18.116;2023-09-19T05:30:34;30.27;;;16.73;;
75059;SDS011;63640;59.264;18.116;2023-09-19T05:33:03;22.08;;;15.15;;
75059;SDS011;63640;59.264;18.116;2023-09-19T05:35:30;23.52;;;14.38;;
75059;SDS011;63640;59.264;18.116;2023-09-19T05:37:56;23.45;;;15.98;;
75059;SDS011;63640;59.264;18.116;2023-09-19T05:40:23;23.25;;;14.80;;
75059;SDS011;63640;59.264;18.116;2023-09-19T05:42:49;22.15;;;14.43;;
75059;SDS011;63640;59.264;18.116;2023-09-19T05:45:15;24.73;;;15.25;;
75059;SDS011;63640;59.264;18.116;2023-09-19T05:47:47;21.80;;;14.77;;
75059;SDS011;63640;59.264;18.116;2023-09-19T05:50:13;22.35;;;13.82;;
75059;SDS011;63640;59.264;18.116;2023-09-19T05:52:40;25.27;;;15.85;;
75059;SDS011;63640;59.264;18.116;2023-09-19T05:55:09;20.50;;;12.77;;
75059;SDS011;63640;59.264;18.116;2023-09-19T05:57:36;19.17;;;13.27;;
75059;SDS011;63640;59.264;18.116;2023-09-19T06:00:04;24.20;;;15.23;;
75059;SDS011;63640;59.264;18.116;2023-09-19T06:02:36;24.02;;;15.30;;
75059;SDS011;63640;59.264;18.116;2023-09-19T06:05:03;24.13;;;15.23;;
75059;SDS011;63640;59.264;18.116;2023-09-19T06:07:31;25.90;;;15.23;;
75059;SDS011;63640;59.264;18.116;2023-09-19T06:10:02;22.40;;;15.38;;
75059;SDS011;63640;59.264;18.116;2023-09-19T06:12:30;24.63;;;16.00;;
75059;SDS011;63640;59.264;18.116;2023-09-19T06:14:58;20.77;;;14.65;;
75059;SDS011;63640;59.264;18.116;2023-09-19T06:17:24;21.88;;;14.27;;
75059;SDS011;63640;59.264;18.116;2023-09-19T06:19:52;25.42;;;17.40;;
75059;SDS011;63640;59.264;18.116;2023-09-19T06:22:18;25.42;;;14.70;;
75059;SDS011;63640;59.264;18.116;2023-09-19T06:24:44;22.98;;;15.30;;
75059;SDS011;63640;59.264;18.116;2023-09-19T06:27:10;20.85;;;14.23;;
75059;SDS011;63640;59.264;18.116;2023-09-19T06:29:35;25.42;;;16.88;;
75059;SDS011;63640;59.264;18.116;2023-09-19T06:32:06;23.63;;;15.75;;
75059;SDS011;63640;59.264;18.116;2023-09-19T06:34:33;25.85;;;15.82;;
75059;SDS011;63640;59.264;18.116;2023-09-19T06:36:59;22.55;;;15.60;;
75059;SDS011;63640;59.264;18.116;2023-09-19T06:39:24;27.05;;;15.98;;
75059;SDS011;63640;59.264;18.116;2023-09-19T06:41:51;23.98;;;16.42;;
75059;SDS011;63640;59.264;18.116;2023-09-19T06:44:18;22.60;;;14.60;;
75059;SDS011;63640;59.264;18.116;2023-09-19T06:46:46;26.55;;;16.55;;
75059;SDS011;63640;59.264;18.116;2023-09-19T06:49:16;31.38;;;17.23;;
75059;SDS011;63640;59.264;18.116;2023-09-19T06:51:42;23.95;;;16.40;;
75059;SDS011;63640;59.264;18.116;2023-09-19T06:54:09;27.73;;;20.08;;
75059;SDS011;63640;59.264;18.116;2023-09-19T06:56:34;26.30;;;17.33;;
75059;SDS011;63640;59.264;18.116;2023-09-19T06:59:00;40.50;;;23.30;;
75059;SDS011;63640;59.264;18.116;2023-09-19T07:01:27;38.03;;;24.55;;
75059;SDS011;63640;59.264;18.116;2023-09-19T07:03:53;34.05;;;20.20;;
75059;SDS011;63640;59.264;18.116;2023-09-19T07:06:18;25.13;;;17.75;;
75059;SDS011;63640;59.264;18.116;2023-09-19T07:08:44;26.30;;;18.38;;
75059;SDS011;63640;59.264;18.116;2023-09-19T07:11:10;27.15;;;16.80;;
75059;SDS011;63640;59.264;18.116;2023-09-19T07:13:37;22.77;;;14.35;;
75059;SDS011;63640;59.264;18.116;2023-09-19T07:16:03;23.38;;;15.55;;
75059;SDS011;63640;59.264;18.116;2023-09-19T07:18:29;21.70;;;14.65;;
75059;SDS011;63640;59.264;18.116;2023-09-19T07:20:57;18.67;;;12.35;;
75059;SDS011;63640;59.264;18.116;2023-09-19T07:23:30;20.92;;;14.82;;
75059;SDS011;63640;59.264;18.116;2023-09-19T07:26:01;19.42;;;13.35;;
75059;SDS011;63640;59.264;18.116;2023-09-19T07:28:27;19.42;;;13.70;;
75059;SDS011;63640;59.264;18.116;2023-09-19T07:30:53;17.25;;;12.23;;
75059;SDS011;63640;59.264;18.116;2023-09-19T07:33:19;20.73;;;13.70;;
75059;SDS011;63640;59.264;18.116;2023-09-19T07:35:45;20.80;;;14.52;;
75059;SDS011;63640;59.264;18.116;2023-09-19T07:38:11;22.88;;;15.05;;
75059;SDS011;63640;59.264;18.116;2023-09-19T07:40:37;21.60;;;15.68;;
75059;SDS011;63640;59.264;18.116;2023-09-19T07:43:02;21.35;;;15.18;;
75059;SDS011;63640;59.264;18.116;2023-09-19T07:45:30;25.55;;;16.63;;
75059;SDS011;63640;59.264;18.116;2023-09-19T07:47:56;29.98;;;19.25;;
75059;SDS011;63640;59.264;18.116;2023-09-19T07:50:22;23.40;;;16.13;;
75059;SDS011;63640;59.264;18.116;2023-09-19T07:52:48;26.85;;;17.63;;
75059;SDS011;63640;59.264;18.116;2023-09-19T07:55:18;25.55;;;17.38;;
75059;SDS011;63640;59.264;18.116;2023-09-19T07:57:48;28.63;;;18.75;;
75059;SDS011;63640;59.264;18.116;2023-09-19T08:00:14;26.25;;;17.83;;
75059;SDS011;63640;59.264;18.116;2023-09-19T08:02:40;31.27;;;18.33;;
75059;SDS011;63640;59.264;18.116;2023-09-19T08:05:07;31.00;;;18.83;;
75059;SDS011;63640;59.264;18.116;2023-09-19T08:07:39;28.13;;;17.23;;
75059;SDS011;63640;59.264;18.116;2023-09-19T08:10:06;30.27;;;18.10;;
75059;SDS011;63640;59.264;18.116;2023-09-19T08:12:40;26.70;;;15.43;;
75059;SDS011;63640;59.264;18.116;2023-09-19T08:15:20;24.08;;;16.08;;
75059;SDS011;63640;59.264;18.116;2023-09-19T08:17:46;33.22;;;18.65;;
75059;SDS011;63640;59.264;18.116;2023-09-19T08:20:12;24.10;;;14.45;;
75059;SDS011;63640;59.264;18.116;2023-09-19T08:22:47;23.70;;;14.68;;
75059;SDS011;63640;59.264;18.116;2023-09-19T08:25:13;26.52;;;15.43;;
75059;SDS011;63640;59.264;18.116;2023-09-19T08:27:42;24.70;;;16.08;;
75059;SDS011;63640;59.264;18.116;2023-09-19T08:30:11;22.73;;;15.85;;
75059;SDS011;63640;59.264;18.116;2023-09-19T08:32:36;23.92;;;14.70;;
75059;SDS011;63640;59.264;18.116;2023-09-19T08:35:02;23.27;;;14.90;;
75059;SDS011;63640;59.264;18.116;2023-09-19T08:37:29;27.67;;;15.85;;
75059;SDS011;63640;59.264;18.116;2023-09-19T08:39:55;25.70;;;15.57;;
75059;SDS011;63640;59.264;18.116;2023-09-19T08:42:20;27.98;;;16.70;;
75059;SDS011;63640;59.264;18.116;2023-09-19T08:44:46;25.20;;;15.65;;
75059;SDS011;63640;59.264;18.116;2023-09-19T08:47:14;22.17;;;14.55;;
75059;SDS011;63640;59.264;18.116;2023-09-19T08:50:01;24.50;;;13.95;;
75059;SDS011;63640;59.264;18.116;2023-09-19T08:52:42;20.90;;;14.60;;
75059;SDS011;63640;59.264;18.116;2023-09-19T08:55:11;24.75;;;15.18;;
75059;SDS011;63640;59.264;18.116;2023-09-19T08:57:38;24.50;;;14.60;;
75059;SDS011;63640;59.264;18.116;2023-09-19T09:00:08;22.45;;;13.73;;
75059;SDS011;63640;59.264;18.116;2023-09-19T09:02:36;22.98;;;13.45;;
75059;SDS011;63640;59.264;18.116;2023-09-19T09:05:06;21.50;;;13.07;;
75059;SDS011;63640;59.264;18.116;2023-09-19T09:07:34;19.77;;;11.23;;
75059;SDS011;63640;59.264;18.116;2023-09-19T09:10:04;22.45;;;13.30;;
75059;SDS011;63640;59.264;18.116;2023-09-19T09:12:31;25.38;;;12.57;;
75059;SDS011;63640;59.264;18.116;2023-09-19T09:14:56;16.08;;;9.38;;
75059;SDS011;63640;59.264;18.116;2023-09-19T09:17:25;16.00;;;9.57;;
75059;SDS011;63640;59.264;18.116;2023-09-19T09:19:54;13.98;;;8.60;;
75059;SDS011;63640;59.264;18.116;2023-09-19T09:22:20;18.40;;;8.32;;
75059;SDS011;63640;59.264;18.116;2023-09-19T09:24:56;14.75;;;8.90;;
75059;SDS011;63640;59.264;18.116;2023-09-19T09:27:30;16.83;;;8.80;;
75059;SDS011;63640;59.264;18.116;2023-09-19T09:29:57;16.10;;;8.30;;
75059;SDS011;63640;59.264;18.116;2023-09-19T09:32:24;17.08;;;8.57;;
75059;SDS011;63640;59.264;18.116;2023-09-19T09:34:52;13.93;;;8.32;;
75059;SDS011;63640;59.264;18.116;2023-09-19T09:39:54;16.45;;;8.10;;
75059;SDS011;63640;59.264;18.116;2023-09-19T09:42:39;15.27;;;7.22;;
75059;SDS011;63640;59.264;18.116;2023-09-19T09:45:12;14.65;;;8.00;;
75059;SDS011;63640;59.264;18.116;2023-09-19T09:48:02;15.20;;;8.13;;
75059;SDS011;63640;59.264;18.116;2023-09-19T09:50:35;15.50;;;7.82;;
75059;SDS011;63640;59.264;18.116;2023-09-19T09:53:28;14.13;;;7.28;;
75059;SDS011;63640;59.264;18.116;2023-09-19T09:58:33;10.77;;;5.68;;
75059;SDS011;63640;59.264;18.116;2023-09-19T10:01:02;12.73;;;6.50;;
75059;SDS011;63640;59.264;18.116;2023-09-19T10:03:41;11.50;;;6.55;;
75059;SDS011;63640;59.264;18.116;2023-09-19T10:06:16;12.93;;;6.50;;
75059;SDS011;63640;59.264;18.116;2023-09-19T10:08:58;12.73;;;6.32;;
75059;SDS011;63640;59.264;18.116;2023-09-19T10:11:43;12.77;;;6.15;;
75059;SDS011;63640;59.264;18.116;2023-09-19T10:14:11;9.85;;;5.82;;
75059;SDS011;63640;59.264;18.116;2023-09-19T10:16:44;12.38;;;6.18;;
75059;SDS011;63640;59.264;18.116;2023-09-19T10:19:14;13.10;;;5.05;;
75059;SDS011;63640;59.264;18.116;2023-09-19T10:21:50;11.75;;;5.85;;
75059;SDS011;63640;59.264;18.116;2023-09-19T10:24:16;8.32;;;5.22;;
75059;SDS011;63640;59.264;18.116;2023-09-19T10:26:43;10.15;;;5.35;;
75059;SDS011;63640;59.264;18.116;2023-09-19T10:29:10;12.35;;;5.72;;
75059;SDS011;63640;59.264;18.116;2023-09-19T10:31:39;10.15;;;5.10;;
75059;SDS011;63640;59.264;18.116;2023-09-19T10:34:06;8.93;;;4.90;;
75059;SDS011;63640;59.264;18.116;2023-09-19T10:36:35;9.90;;;4.75;;
75059;SDS011;63640;59.264;18.116;2023-09-19T10:39:02;10.63;;;5.28;;
75059;SDS011;63640;59.264;18.116;2023-09-19T10:41:31;8.65;;;5.00;;
75059;SDS011;63640;59.264;18.116;2023-09-19T10:43:59;9.07;;;5.40;;
75059;SDS011;63640;59.264;18.116;2023-09-19T10:46:28;9.82;;;4.38;;
75059;SDS011;63640;59.264;18.116;2023-09-19T10:48:53;10.77;;;4.93;;
75059;SDS011;63640;59.264;18.116;2023-09-19T10:51:25;8.13;;;4.53;;
75059;SDS011;63640;59.264;18.116;2023-09-19T10:54:10;10.27;;;5.10;;
75059;SDS011;63640;59.264;18.116;2023-09-19T10:56:38;8.73;;;4.63;;
75059;SDS011;63640;59.264;18.116;2023-09-19T10:59:16;9.32;;;4.80;;
75059;SDS011;63640;59.264;18.116;2023-09-19T11:01:52;8.95;;;4.22;;
75059;SDS011;63640;59.264;18.116;2023-09-19T11:07:00;8.30;;;4.28;;
75059;SDS011;63640;59.264;18.116;2023-09-19T11:14:54;7.10;;;3.53;;
75059;SDS011;63640;59.264;18.116;2023-09-19T11:25:55;7.85;;;3.20;;
75059;SDS011;63640;59.264;18.116;2023-09-19T11:30:47;7.10;;;3.42;;
75059;SDS011;63640;59.264;18.116;2023-09-19T11:33:32;6.07;;;2.35;;
75059;SDS011;63640;59.264;18.116;2023-09-19T11:36:10;5.25;;;2.63;;
75059;SDS011;63640;59.264;18.116;2023-09-19T11:43:45;5.78;;;2.17;;
75059;SDS011;63640;59.264;18.116;2023-09-19T11:46:11;6.97;;;2.30;;
75059;SDS011;63640;59.264;18.116;2023-09-19T11:48:40;5.38;;;2.22;;
75059;SDS011;63640;59.264;18.116;2023-09-19T11:51:10;5.80;;;1.80;;
75059;SDS011;63640;59.264;18.116;2023-09-19T11:53:44;6.40;;;1.70;;
75059;SDS011;63640;59.264;18.116;2023-09-19T11:56:16;4.40;;;1.50;;
75059;SDS011;63640;59.264;18.116;2023-09-19T11:58:50;4.80;;;1.50;;
75059;SDS011;63640;59.264;18.116;2023-09-19T12:01:31;4.65;;;1.40;;
75059;SDS011;63640;59.264;18.116;2023-09-19T12:03:59;5.28;;;1.42;;
75059;SDS011;63640;59.264;18.116;2023-09-19T12:06:25;4.32;;;1.27;;
75059;SDS011;63640;59.264;18.116;2023-09-19T12:08:52;6.20;;;1.73;;
75059;SDS011;63640;59.264;18.116;2023-09-19T12:11:19;5.68;;;1.33;;
75059;SDS011;63640;59.264;18.116;2023-09-19T12:13:46;5.10;;;1.50;;
75059;SDS011;63640;59.264;18.116;2023-09-19T12:16:14;5.90;;;2.00;;
75059;SDS011;63640;59.264;18.116;2023-09-19T12:18:46;6.50;;;1.80;;
75059;SDS011;63640;59.264;18.116;2023-09-19T12:21:23;5.72;;;1.92;;
75059;SDS011;63640;59.264;18.116;2023-09-19T12:26:26;5.00;;;1.52;;
75059;SDS011;63640;59.264;18.116;2023-09-19T12:28:54;5.28;;;1.30;;
75059;SDS011;63640;59.264;18.116;2023-09-19T12:31:20;6.55;;;1.70;;
75059;SDS011;63640;59.264;18.116;2023-09-19T12:33:45;4.88;;;1.60;;
75059;SDS011;63640;59.264;18.116;2023-09-19T12:36:21;4.15;;;1.50;;
75059;SDS011;63640;59.264;18.116;2023-09-19T12:38:57;5.20;;;1.33;;
75059;SDS011;63640;59.264;18.116;2023-09-19T12:41:25;4.80;;;1.30;;
75059;SDS011;63640;59.264;18.116;2023-09-19T12:43:52;6.75;;;1.48;;
75059;SDS011;63640;59.264;18.116;2023-09-19T12:46:20;4.95;;;1.55;;
75059;SDS011;63640;59.264;18.116;2023-09-19T12:48:51;6.25;;;1.70;;
75059;SDS011;63640;59.264;18.116;2023-09-19T12:51:47;5.65;;;1.40;;
75059;SDS011;63640;59.264;18.116;2023-09-19T12:54:13;7.47;;;1.63;;
75059;SDS011;63640;59.264;18.116;2023-09-19T12:56:45;6.90;;;1.80;;
75059;SDS011;63640;59.264;18.116;2023-09-19T12:59:12;6.15;;;1.80;;
75059;SDS011;63640;59.264;18.116;2023-09-19T13:01:39;4.32;;;1.33;;
75059;SDS011;63640;59.264;18.116;2023-09-19T13:04:17;7.13;;;1.40;;
75059;SDS011;63640;59.264;18.116;2023-09-19T13:06:48;5.82;;;1.40;;
75059;SDS011;63640;59.264;18.116;2023-09-19T13:09:19;4.40;;;1.30;;
75059;SDS011;63640;59.264;18.116;2023-09-19T13:11:53;6.65;;;1.50;;
75059;SDS011;63640;59.264;18.116;2023-09-19T13:14:20;7.80;;;1.77;;
75059;SDS011;63640;59.264;18.116;2023-09-19T13:19:44;6.38;;;1.90;;
75059;SDS011;63640;59.264;18.116;2023-09-19T13:25:08;8.73;;;1.42;;
75059;SDS011;63640;59.264;18.116;2023-09-19T13:27:39;6.07;;;1.70;;
75059;SDS011;63640;59.264;18.116;2023-09-19T13:30:06;6.55;;;1.83;;
75059;SDS011;63640;59.264;18.116;2023-09-19T13:32:32;5.75;;;1.80;;
75059;SDS011;63640;59.264;18.116;2023-09-19T13:34:58;6.68;;;1.70;;
75059;SDS011;63640;59.264;18.116;2023-09-19T13:37:24;5.32;;;1.60;;
75059;SDS011;63640;59.264;18.116;2023-09-19T13:39:51;4.97;;;1.45;;
75059;SDS011;63640;59.264;18.116;2023-09-19T13:42:17;5.72;;;1.40;;
75059;SDS011;63640;59.264;18.116;2023-09-19T13:44:43;5.40;;;1.40;;
75059;SDS011;63640;59.264;18.116;2023-09-19T13:47:09;7.85;;;2.00;;
75059;SDS011;63640;59.264;18.116;2023-09-19T13:49:38;7.97;;;1.88;;
75059;SDS011;63640;59.264;18.116;2023-09-19T13:52:03;5.03;;;1.50;;
75059;SDS011;63640;59.264;18.116;2023-09-19T13:54:30;6.68;;;1.63;;
75059;SDS011;63640;59.264;18.116;2023-09-19T13:56:56;8.35;;;1.80;;
75059;SDS011;63640;59.264;18.116;2023-09-19T13:59:21;5.88;;;1.67;;
75059;SDS011;63640;59.264;18.116;2023-09-19T14:01:49;5.32;;;1.48;;
75059;SDS011;63640;59.264;18.116;2023-09-19T14:04:15;8.75;;;2.13;;
75059;SDS011;63640;59.264;18.116;2023-09-19T14:06:42;8.90;;;1.90;;
75059;SDS011;63640;59.264;18.116;2023-09-19T14:09:08;5.45;;;1.60;;
75059;SDS011;63640;59.264;18.116;2023-09-19T14:11:35;3.97;;;1.40;;
75059;SDS011;63640;59.264;18.116;2023-09-19T14:14:01;6.35;;;1.55;;
75059;SDS011;63640;59.264;18.116;2023-09-19T14:16:26;5.68;;;1.40;;
75059;SDS011;63640;59.264;18.116;2023-09-19T14:18:55;7.13;;;1.73;;
75059;SDS011;63640;59.264;18.116;2023-09-19T14:21:20;8.85;;;1.52;;
75059;SDS011;63640;59.264;18.116;2023-09-19T14:23:46;6.95;;;1.60;;
75059;SDS011;63640;59.264;18.116;2023-09-19T14:26:11;5.10;;;1.50;;
75059;SDS011;63640;59.264;18.116;2023-09-19T14:28:37;8.65;;;1.75;;
75059;SDS011;63640;59.264;18.116;2023-09-19T14:31:07;7.40;;;1.80;;
75059;SDS011;63640;59.264;18.116;2023-09-19T14:33:33;9.55;;;2.45;;
75059;SDS011;63640;59.264;18.116;2023-09-19T14:36:02;11.68;;;2.80;;
75059;SDS011;63640;59.264;18.116;2023-09-19T14:38:31;6.05;;;1.40;;
75059;SDS011;63640;59.264;18.116;2023-09-19T14:41:01;5.20;;;1.90;;
75059;SDS011;63640;59.264;18.116;2023-09-19T14:43:28;5.40;;;1.70;;
75059;SDS011;63640;59.264;18.116;2023-09-19T14:46:04;6.25;;;2.00;;
75059;SDS011;63640;59.264;18.116;2023-09-19T14:48:32;5.25;;;1.42;;
75059;SDS011;63640;59.264;18.116;2023-09-19T14:51:01;5.53;;;1.50;;
75059;SDS011;63640;59.264;18.116;2023-09-19T14:53:27;8.13;;;1.90;;
75059;SDS011;63640;59.264;18.116;2023-09-19T14:55:53;8.07;;;2.10;;
75059;SDS011;63640;59.264;18.116;2023-09-19T14:58:20;11.25;;;2.25;;
75059;SDS011;63640;59.264;18.116;2023-09-19T15:00:46;6.95;;;1.73;;
75059;SDS011;63640;59.264;18.116;2023-09-19T15:03:11;5.50;;;1.42;;
75059;SDS011;63640;59.264;18.116;2023-09-19T15:05:38;5.63;;;1.20;;
75059;SDS011;63640;59.264;18.116;2023-09-19T15:08:04;4.30;;;1.30;;
75059;SDS011;63640;59.264;18.116;2023-09-19T15:10:31;4.80;;;1.13;;
75059;SDS011;63640;59.264;18.116;2023-09-19T15:12:56;7.13;;;1.60;;